Time;durP1;ratioP1;P1;durP2;ratioP2;P2;SDS_P1;SDS_P2;PMS_P1;PMS_P2;Temp;Humidity;BMP_temperature;BMP_pressure;BME280_temperature;BME280_humidity;BME280_pressure;Samples;Min_cycle;Max_cycle;Signal;HPM_P1;HPM_P2
2021/11/02 00:02:08;;;;;;;46.10;27.00;;;256.70;2124.80;;;;;;4811782;29;20362;-81
2021/11/02 00:04:34;;;;;;;53.95;31.55;;;256.70;2124.80;;;;;;4811808;29;20019;-81
2021/11/02 00:07:01;;;;;;;41.65;26.65;;;256.70;2124.80;;;;;;4795343;29;20038;-82
2021/11/02 00:09:30;;;;;;;37.78;25.42;;;256.70;2124.80;;;;;;4795297;29;20122;-80
2021/11/02 00:11:56;;;;;;;46.78;28.02;;;256.70;2124.80;;;;;;4795232;29;20035;-80
2021/11/02 00:14:25;;;;;;;36.60;24.90;;;256.60;2124.80;;;;;;4813434;29;20125;-81
2021/11/02 00:16:58;;;;;;;53.08;30.13;;;256.60;2124.80;;;;;;4795824;29;20039;-81
2021/11/02 00:19:26;;;;;;;35.67;25.30;;;256.60;2124.80;;;;;;4812042;29;20033;-81
2021/11/02 00:21:54;;;;;;;52.97;29.98;;;256.60;2150.40;;;;;;4795729;29;20034;-82
2021/11/02 00:27:01;;;;;;;41.10;26.83;;;256.60;2124.80;;;;;;4809874;29;20381;-81
2021/11/02 00:29:27;;;;;;;61.80;32.30;;;256.60;2124.80;;;;;;4793830;29;20033;-82
2021/11/02 00:31:53;;;;;;;83.53;41.08;;;256.60;2124.80;;;;;;4810057;29;20455;-81
2021/11/02 00:34:19;;;;;;;58.80;32.17;;;256.60;2150.40;;;;;;4793653;29;20034;-81
2021/11/02 00:36:45;;;;;;;60.38;32.72;;;256.60;2124.80;;;;;;4809825;29;20034;-81
2021/11/02 00:39:11;;;;;;;50.58;32.38;;;256.60;2124.80;;;;;;4793675;29;20118;-81
2021/11/02 00:41:37;;;;;;;43.20;27.65;;;256.70;2124.80;;;;;;4792883;29;20035;-80
2021/11/02 00:44:04;;;;;;;39.00;25.30;;;256.70;2124.80;;;;;;4792362;29;20041;-80
2021/11/02 00:46:36;;;;;;;43.75;28.40;;;256.70;2124.80;;;;;;4792598;29;20070;-80
2021/11/02 00:49:03;;;;;;;37.20;24.88;;;256.70;2124.80;;;;;;4792747;29;20512;-81
2021/11/02 00:51:29;;;;;;;34.08;24.20;;;256.60;2124.80;;;;;;4792446;29;20133;-79
2021/11/02 00:53:56;;;;;;;36.38;23.98;;;256.60;2124.80;;;;;;4792561;29;20133;-80
2021/11/02 00:56:22;;;;;;;45.08;27.90;;;256.40;2124.80;;;;;;4792337;29;20087;-81
2021/11/02 00:58:48;;;;;;;53.28;30.83;;;256.60;2150.40;;;;;;4808756;29;20436;-81
2021/11/02 01:01:14;;;;;;;33.97;24.23;;;256.60;2150.40;;;;;;4792458;29;20063;-80
2021/11/02 01:03:40;;;;;;;29.20;22.70;;;256.60;2150.40;;;;;;4792384;29;20114;-79
2021/11/02 01:06:06;;;;;;;30.73;22.33;;;256.60;2124.80;;;;;;4792198;29;20183;-81
2021/11/02 01:08:33;;;;;;;29.92;21.67;;;256.60;2124.80;;;;;;4792281;29;20531;-81
2021/11/02 01:10:59;;;;;;;27.65;21.45;;;256.70;2124.80;;;;;;4808446;29;20027;-80
2021/11/02 01:13:27;;;;;;;29.83;22.05;;;256.70;2124.80;;;;;;4808383;29;20122;-80
2021/11/02 01:15:53;;;;;;;31.83;22.13;;;256.70;2124.80;;;;;;4808592;29;20071;-81
2021/11/02 01:18:19;;;;;;;25.02;20.27;;;256.70;2124.80;;;;;;4808683;29;20043;-81
2021/11/02 01:20:45;;;;;;;32.67;21.85;;;256.70;2124.80;;;;;;4792181;29;20537;-80
2021/11/02 01:23:12;;;;;;;29.38;21.92;;;256.70;2124.80;;;;;;4791985;29;20039;-81
2021/11/02 01:25:38;;;;;;;30.45;22.23;;;256.70;2124.80;;;;;;4808219;29;20027;-81
2021/11/02 01:28:05;;;;;;;29.13;22.25;;;256.70;2124.80;;;;;;4792135;29;20074;-79
2021/11/02 01:30:31;;;;;;;33.25;22.70;;;256.90;2124.80;;;;;;4808241;29;20110;-80
2021/11/02 01:32:57;;;;;;;30.48;23.15;;;256.60;2124.80;;;;;;4808204;29;20556;-80
2021/11/02 01:35:23;;;;;;;32.08;22.40;;;256.70;2124.80;;;;;;4791861;29;20031;-81
2021/11/02 01:37:50;;;;;;;32.17;23.52;;;256.70;2124.80;;;;;;4791769;29;20038;-81
2021/11/02 01:40:17;;;;;;;32.58;22.25;;;256.80;2124.80;;;;;;4791791;29;20121;-81
2021/11/02 01:42:44;;;;;;;31.52;22.20;;;256.80;2124.80;;;;;;4791642;29;20046;-81
2021/11/02 01:45:11;;;;;;;35.30;22.67;;;256.80;2124.80;;;;;;4791694;29;20031;-81
2021/11/02 01:47:43;;;;;;;31.13;22.65;;;256.80;2124.80;;;;;;4791545;29;20545;-80
2021/11/02 01:50:10;;;;;;;33.13;23.88;;;256.80;2124.80;;;;;;4791581;29;20023;-81
2021/11/02 01:52:36;;;;;;;36.42;24.02;;;256.90;2124.80;;;;;;4791242;29;20437;-81
2021/11/02 01:55:04;;;;;;;32.55;22.65;;;256.90;2124.80;;;;;;4791570;29;20072;-81
2021/11/02 01:57:29;;;;;;;35.92;24.67;;;256.90;2124.80;;;;;;4791486;29;20034;-82
2021/11/02 01:59:56;;;;;;;31.23;21.50;;;256.90;2124.80;;;;;;4791482;29;20518;-80
2021/11/02 02:02:56;;;;;;;32.17;23.08;;;256.90;2124.80;;;;;;4791371;29;20030;-81
2021/11/02 02:05:31;;;;;;;29.02;22.20;;;281.60;2150.40;;;;;;4807563;29;20034;-81
2021/11/02 02:08:08;;;;;;;34.15;22.83;;;281.60;2150.40;;;;;;4807795;29;20031;-80
2021/11/02 02:10:44;;;;;;;31.90;22.92;;;281.60;2150.40;;;;;;4807501;29;20060;-80
2021/11/02 02:13:38;;;;;;;36.55;23.13;;;281.60;2150.40;;;;;;4791104;29;20039;-80
2021/11/02 02:16:16;;;;;;;32.00;22.55;;;281.60;2150.40;;;;;;4774669;29;20071;-80
2021/11/02 02:19:01;;;;;;;32.50;22.67;;;281.60;2150.40;;;;;;4790984;29;20030;-81
2021/11/02 02:21:50;;;;;;;31.02;22.52;;;281.60;2150.40;;;;;;4807299;29;20034;-79
2021/11/02 02:24:55;;;;;;;30.92;22.83;;;281.60;2150.40;;;;;;4807257;29;20029;-80
2021/11/02 02:27:34;;;;;;;32.40;22.65;;;281.60;2150.40;;;;;;4733588;30;20087;-81
2021/11/02 02:30:10;;;;;;;32.78;23.55;;;281.70;2150.40;;;;;;4719502;30;20097;-80
2021/11/02 02:32:38;;;;;;;30.77;22.48;;;281.60;2176.00;;;;;;4719368;30;20052;-81
2021/11/02 02:35:08;;;;;;;32.38;23.13;;;281.70;2176.00;;;;;;4733758;30;20028;-80
2021/11/02 02:37:36;;;;;;;32.50;23.33;;;281.70;2150.40;;;;;;4733693;30;20082;-79
2021/11/02 02:40:04;;;;;;;29.95;22.60;;;281.70;2150.40;;;;;;4733631;30;20048;-79
2021/11/02 02:42:31;;;;;;;28.90;22.65;;;281.70;2150.40;;;;;;4733646;30;20040;-80
2021/11/02 02:44:58;;;;;;;31.80;23.40;;;281.70;2176.00;;;;;;4733676;30;20041;-81
2021/11/02 02:47:25;;;;;;;34.63;24.17;;;281.70;2176.00;;;;;;4733472;30;20045;-80
2021/11/02 02:49:55;;;;;;;34.05;24.13;;;281.70;2176.00;;;;;;4733653;30;20068;-81
2021/11/02 02:52:23;;;;;;;32.13;23.00;;;281.80;2176.00;;;;;;4733513;30;20056;-81
2021/11/02 02:54:50;;;;;;;30.98;23.33;;;281.80;2176.00;;;;;;4733435;30;20123;-80
2021/11/02 02:57:20;;;;;;;31.30;23.08;;;281.80;2176.00;;;;;;4745885;29;20039;-79
2021/11/02 02:59:46;;;;;;;31.58;23.55;;;281.80;2176.00;;;;;;4806712;29;20023;-80
2021/11/02 03:02:14;;;;;;;38.90;24.85;;;281.80;2176.00;;;;;;4806614;29;20074;-80
2021/11/02 03:04:47;;;;;;;39.55;24.98;;;281.80;2201.60;;;;;;4789861;29;20481;-80
2021/11/02 03:07:15;;;;;;;32.00;24.50;;;281.80;2227.20;;;;;;4790326;29;20138;-80
2021/11/02 03:09:45;;;;;;;33.65;25.92;;;281.80;2227.20;;;;;;4790278;29;20039;-80
2021/11/02 03:12:13;;;;;;;34.80;24.67;;;281.80;2252.80;;;;;;4790269;29;20035;-80
2021/11/02 03:14:55;;;;;;;35.95;25.98;;;281.70;2278.40;;;;;;4790269;29;20038;-80
2021/11/02 03:17:26;;;;;;;38.90;27.27;;;281.70;2278.40;;;;;;4790255;29;20063;-80
2021/11/02 03:50:21;;;;;;;38.85;26.73;;;281.70;2278.40;;;;;;4806383;29;20518;-80
2021/11/02 03:58:32;;;;;;;37.10;25.95;;;281.70;2278.40;;;;;;4806674;29;20050;-80
2021/11/02 04:01:28;;;;;;;36.17;26.52;;;281.70;2278.40;;;;;;4789827;29;20042;-80
2021/11/02 04:29:14;;;;;;;35.63;27.88;;;281.60;2278.40;;;;;;4789703;30;20516;-81
2021/11/02 06:01:56;;;;;;;36.22;28.52;;;256.60;2252.80;;;;;;4809260;29;20084;-88
2021/11/02 06:04:50;;;;;;;37.80;28.38;;;256.60;2252.80;;;;;;4792515;29;20142;-88
2021/11/02 06:30:14;;;;;;;44.33;33.03;;;256.90;2252.80;;;;;;4808029;29;20042;-89
2021/11/02 06:32:47;;;;;;;40.50;30.17;;;281.60;2278.40;;;;;;4791836;29;20077;-89
2021/11/02 06:35:30;;;;;;;41.85;28.35;;;281.60;2278.40;;;;;;4791808;29;20034;-90
2021/11/02 06:49:32;;;;;;;41.03;27.63;;;281.60;2278.40;;;;;;4808291;29;20437;-90
2021/11/02 07:20:40;;;;;;;;;;;281.90;2278.40;;;;;;4699844;30;20034;-89
2021/11/02 08:47:47;;;;;;;41.03;28.10;;;307.30;2304.00;;;;;;4791543;30;20046;-87
2021/11/02 08:50:18;;;;;;;35.63;27.50;;;307.30;2304.00;;;;;;4790443;30;20091;-88
2021/11/02 08:52:50;;;;;;;36.20;27.58;;;307.30;2304.00;;;;;;4790156;29;20136;-89
2021/11/02 08:55:17;;;;;;;36.92;26.60;;;307.20;2304.00;;;;;;4790427;30;20087;-87
2021/11/02 08:57:43;;;;;;;36.42;27.45;;;307.30;2304.00;;;;;;4790277;30;20476;-86
2021/11/02 09:00:10;;;;;;;39.78;27.80;;;307.30;2304.00;;;;;;4775512;30;20149;-86
2021/11/02 09:02:40;;;;;;;37.53;26.40;;;307.70;2304.00;;;;;;4789529;29;20093;-87
2021/11/02 09:05:08;;;;;;;41.85;28.20;;;307.40;2304.00;;;;;;4790507;29;20031;-89
2021/11/02 09:07:34;;;;;;;37.25;25.90;;;307.40;2304.00;;;;;;4790257;29;20503;-88
2021/11/02 09:10:05;;;;;;;35.15;26.98;;;308.00;2304.00;;;;;;4790196;29;20045;-89
2021/11/02 09:12:32;;;;;;;38.13;27.67;;;307.50;2304.00;;;;;;4790143;30;20045;-87
2021/11/02 09:15:00;;;;;;;42.33;27.95;;;307.50;2304.00;;;;;;4790184;30;20461;-88
2021/11/02 09:17:30;;;;;;;38.20;28.30;;;307.50;2304.00;;;;;;4790079;30;20122;-87
2021/11/02 09:19:58;;;;;;;40.28;28.90;;;307.60;2304.00;;;;;;4790031;30;20065;-88
2021/11/02 09:22:24;;;;;;;40.50;29.02;;;307.60;2304.00;;;;;;4790826;30;20039;-89
2021/11/02 09:24:51;;;;;;;39.22;29.63;;;307.70;2304.00;;;;;;4789899;30;20100;-88
2021/11/02 09:27:18;;;;;;;43.13;30.98;;;307.70;2304.00;;;;;;4789909;30;20067;-86
2021/11/02 09:29:46;;;;;;;39.50;27.55;;;307.80;2304.00;;;;;;4790827;30;20032;-87
2021/11/02 09:32:12;;;;;;;39.38;28.92;;;307.60;2304.00;;;;;;4789962;30;20130;-86
2021/11/02 09:34:38;;;;;;;35.28;27.25;;;307.80;2304.00;;;;;;4790814;30;20057;-87
2021/11/02 09:37:18;;;;;;;56.72;30.38;;;307.80;2304.00;;;;;;4790207;29;20039;-87
2021/11/02 09:39:51;;;;;;;37.03;27.85;;;307.80;2304.00;;;;;;4789786;30;20028;-87
2021/11/02 09:42:35;;;;;;;38.13;27.70;;;307.80;2304.00;;;;;;4789935;30;20040;-85
2021/11/02 09:45:05;;;;;;;40.28;29.27;;;307.80;2304.00;;;;;;4789689;30;20490;-86
2021/11/02 09:47:50;;;;;;;43.45;31.67;;;307.90;2304.00;;;;;;4789513;30;20048;-87
2021/11/02 09:50:47;;;;;;;41.50;29.88;;;307.90;2304.00;;;;;;4774507;30;20035;-86
2021/11/02 09:53:16;;;;;;;45.25;31.20;;;308.00;2304.00;;;;;;4789276;30;20142;-86
2021/11/02 09:56:14;;;;;;;44.05;30.83;;;308.00;2304.00;;;;;;4789399;30;20046;-89
2021/11/02 09:59:09;;;;;;;40.10;29.05;;;308.10;2304.00;;;;;;4789399;30;20067;-86
2021/11/02 10:01:41;;;;;;;36.75;28.33;;;332.80;2329.60;;;;;;4790059;30;20066;-85
2021/11/02 10:04:19;;;;;;;35.80;26.90;;;332.90;2329.60;;;;;;4800226;29;20054;-85
2021/11/02 10:07:05;;;;;;;37.20;28.52;;;333.00;2329.60;;;;;;4807004;29;20484;-87
2021/11/02 10:09:38;;;;;;;37.58;28.92;;;333.00;2329.60;;;;;;4791500;29;20118;-86
2021/11/02 10:12:28;;;;;;;39.97;30.40;;;333.10;2329.60;;;;;;4792072;29;20030;-85
2021/11/02 10:15:03;;;;;;;43.83;30.15;;;333.20;2329.60;;;;;;4791233;29;20508;-86
2021/11/02 10:18:07;;;;;;;37.53;28.52;;;333.30;2329.60;;;;;;4788649;29;20035;-86
2021/11/02 10:21:01;;;;;;;37.17;27.52;;;333.30;2329.60;;;;;;4806903;29;20503;-84
2021/11/02 10:23:44;;;;;;;34.90;26.10;;;333.60;2329.60;;;;;;4792032;29;20042;-85
2021/11/02 10:26:46;;;;;;;36.53;25.42;;;384.70;2329.60;;;;;;4791903;29;20069;-83
2021/11/02 10:29:37;;;;;;;28.30;21.70;;;460.80;2201.60;;;;;;4791906;29;20477;-81
2021/11/02 10:32:09;;;;;;;26.58;21.73;;;538.40;1664.00;;;;;;4806661;29;20513;-83
2021/11/02 10:34:54;;;;;;;22.20;19.55;;;512.80;1689.60;;;;;;4791431;29;20039;-84
2021/11/02 10:37:23;;;;;;;22.85;19.45;;;486.70;1843.20;;;;;;4791428;29;20035;-87
2021/11/02 10:40:05;;;;;;;22.27;19.55;;;486.50;1868.80;;;;;;4807704;29;20035;-85
2021/11/02 10:42:54;;;;;;;24.83;21.30;;;487.10;1843.20;;;;;;4791416;29;20524;-85
2021/11/02 10:45:24;;;;;;;30.27;22.05;;;487.00;1843.20;;;;;;4806794;29;20046;-84
2021/11/02 10:48:05;;;;;;;27.63;23.27;;;486.90;1868.80;;;;;;4790926;29;20057;-88
2021/11/02 10:50:37;;;;;;;31.25;23.75;;;461.70;1945.60;;;;;;4807164;29;20027;-85
2021/11/02 10:53:10;;;;;;;31.90;25.35;;;461.10;2022.40;;;;;;4791221;29;20066;-86
2021/11/02 10:56:11;;;;;;;29.08;24.02;;;461.50;1996.80;;;;;;4806524;29;20031;-87
2021/11/02 10:58:50;;;;;;;26.23;22.23;;;461.50;1996.80;;;;;;4791362;29;20039;-85
2021/11/02 11:01:17;;;;;;;27.80;23.58;;;461.30;1996.80;;;;;;4806342;29;20053;-86
2021/11/02 11:03:47;;;;;;;31.55;23.77;;;461.00;2073.60;;;;;;4790759;29;20027;-86
2021/11/02 11:06:14;;;;;;;25.70;21.17;;;436.00;2099.20;;;;;;4790868;29;20037;-85
2021/11/02 11:08:42;;;;;;;27.13;21.55;;;435.80;2124.80;;;;;;4791166;29;20041;-85
2021/11/02 11:11:14;;;;;;;24.50;21.30;;;435.60;2150.40;;;;;;4790966;29;20034;-85
2021/11/02 11:13:44;;;;;;;22.27;19.75;;;435.40;2176.00;;;;;;4806095;29;20543;-85
2021/11/02 11:16:16;;;;;;;25.35;20.13;;;435.50;2201.60;;;;;;4807374;29;20073;-82
2021/11/02 11:19:02;;;;;;;27.58;21.13;;;435.50;2150.40;;;;;;4807232;29;20038;-83
2021/11/02 11:21:30;;;;;;;35.85;24.70;;;435.30;2176.00;;;;;;4790502;29;20493;-85
2021/11/02 11:24:20;;;;;;;44.30;26.38;;;410.40;2278.40;;;;;;4790586;29;20042;-86
2021/11/02 11:26:49;;;;;;;32.13;26.10;;;410.30;2278.40;;;;;;4789362;29;20090;-84
2021/11/02 11:29:24;;;;;;;40.72;29.13;;;410.50;2252.80;;;;;;4788265;29;20381;-85
2021/11/02 11:31:51;;;;;;;33.88;26.20;;;410.40;2304.00;;;;;;4806496;29;20500;-83
2021/11/02 11:34:18;;;;;;;32.33;25.40;;;410.10;2278.40;;;;;;4790448;29;20022;-86
2021/11/02 11:36:50;;;;;;;30.17;24.42;;;409.80;2329.60;;;;;;4806460;29;20027;-84
2021/11/02 11:39:20;;;;;;;59.85;38.45;;;409.60;2355.20;;;;;;4788512;29;20034;-87
2021/11/02 11:41:53;;;;;;;29.00;23.52;;;409.60;2355.20;;;;;;4790878;29;20113;-85
2021/11/02 11:44:21;;;;;;;33.42;23.23;;;409.60;2355.20;;;;;;4790893;29;20392;-86
2021/11/02 11:46:48;;;;;;;29.73;22.60;;;409.60;2355.20;;;;;;4790508;29;20100;-86
2021/11/02 11:49:26;;;;;;;25.88;20.02;;;409.60;2355.20;;;;;;4790871;29;20087;-84
2021/11/02 11:51:58;;;;;;;27.77;21.38;;;384.90;2329.60;;;;;;4790636;29;20047;-87
2021/11/02 11:54:44;;;;;;;34.75;27.35;;;384.90;2329.60;;;;;;4790684;29;20034;-85
2021/11/02 11:57:10;;;;;;;75.43;44.92;;;384.90;2329.60;;;;;;4790588;29;20234;-88
2021/11/02 11:59:37;;;;;;;29.25;23.38;;;384.80;2329.60;;;;;;4790259;29;20114;-84
2021/11/02 12:02:19;;;;;;;27.50;22.63;;;384.70;2329.60;;;;;;4806455;29;20481;-85
2021/11/02 12:04:58;;;;;;;44.38;33.97;;;486.50;1996.80;;;;;;4788969;29;20031;-85
2021/11/02 12:07:45;;;;;;;52.83;38.78;;;538.40;1715.20;;;;;;4789260;29;20054;-84
2021/11/02 12:10:12;;;;;;;30.00;24.20;;;538.20;1664.00;;;;;;4806600;29;20031;-82
2021/11/02 12:12:39;;;;;;;26.23;21.17;;;512.30;1792.00;;;;;;4790454;29;20062;-85
2021/11/02 12:15:16;;;;;;;36.33;26.45;;;461.60;1894.40;;;;;;4790372;29;20084;-86
2021/11/02 12:17:49;;;;;;;30.92;23.13;;;435.80;2227.20;;;;;;4806576;29;20481;-85
2021/11/02 12:20:16;;;;;;;36.90;22.42;;;410.40;2150.40;;;;;;4790580;29;20118;-84
2021/11/02 12:22:53;;;;;;;27.75;20.95;;;409.80;2227.20;;;;;;4805978;29;20031;-82
2021/11/02 12:25:26;;;;;;;69.03;45.03;;;384.70;2252.80;;;;;;4790468;29;20026;-84
2021/11/02 12:27:53;;;;;;;58.60;41.97;;;384.40;2304.00;;;;;;4790361;29;20588;-86
2021/11/02 12:30:21;;;;;;;33.95;24.45;;;384.30;2304.00;;;;;;4790359;29;20035;-85
2021/11/02 12:32:56;;;;;;;36.45;27.58;;;384.10;2329.60;;;;;;4790224;29;20038;-83
2021/11/02 12:35:26;;;;;;;37.13;26.13;;;384.00;2329.60;;;;;;4806593;29;20027;-85
2021/11/02 12:37:59;;;;;;;26.50;20.63;;;384.00;2329.60;;;;;;4806519;29;20035;-87
2021/11/02 12:40:28;;;;;;;29.90;20.90;;;384.10;2329.60;;;;;;4793648;29;20381;-90
2021/11/02 12:42:55;;;;;;;23.17;18.60;;;384.10;2329.60;;;;;;4793373;29;20118;-81
2021/11/02 12:45:24;;;;;;;22.10;17.65;;;384.00;2329.60;;;;;;4793164;29;20030;-86
2021/11/02 12:47:51;;;;;;;22.20;16.95;;;359.30;2329.60;;;;;;4809405;29;20430;-81
2021/11/02 12:50:21;;;;;;;25.05;17.90;;;359.20;2329.60;;;;;;4793265;29;20034;-84
2021/11/02 12:52:48;;;;;;;29.25;19.60;;;359.10;2329.60;;;;;;4809008;29;20050;-85
2021/11/02 12:55:19;;;;;;;24.52;17.92;;;384.00;2329.60;;;;;;4793164;29;20083;-83
2021/11/02 12:57:48;;;;;;;27.00;17.58;;;384.70;2278.40;;;;;;4792944;29;20048;-87
2021/11/02 13:00:19;;;;;;;26.00;18.45;;;409.80;2252.80;;;;;;4792718;29;20039;-87
2021/11/02 13:02:53;;;;;;;22.95;17.15;;;409.80;2201.60;;;;;;4792918;29;20035;-88
2021/11/02 13:05:22;;;;;;;23.58;18.88;;;410.00;2176.00;;;;;;4792622;29;20035;-86
2021/11/02 13:08:02;;;;;;;25.88;19.02;;;384.80;2227.20;;;;;;4792894;29;20038;-84
2021/11/02 13:10:31;;;;;;;22.52;18.33;;;384.40;2278.40;;;;;;4793363;29;20035;-91
2021/11/02 13:13:07;;;;;;;25.30;20.88;;;384.10;2304.00;;;;;;4793492;29;20035;-87
2021/11/02 13:15:52;;;;;;;29.10;21.38;;;384.00;2329.60;;;;;;4793415;29;20129;-86
2021/11/02 13:18:47;;;;;;;25.00;17.92;;;384.00;2329.60;;;;;;4793304;29;20058;-85
2021/11/02 13:21:21;;;;;;;24.73;17.98;;;384.00;2329.60;;;;;;4778070;29;20034;-86
2021/11/02 13:24:00;;;;;;;24.98;18.27;;;359.30;2329.60;;;;;;4793053;29;20031;-87
2021/11/02 13:26:27;;;;;;;21.77;17.30;;;384.20;2304.00;;;;;;4792868;29;20392;-89
2021/11/02 13:28:54;;;;;;;19.70;14.95;;;384.10;2304.00;;;;;;4792733;29;20084;-87
2021/11/02 13:31:34;;;;;;;20.48;15.82;;;384.20;2278.40;;;;;;4792759;29;20118;-86
2021/11/02 13:34:19;;;;;;;21.08;17.55;;;384.30;2278.40;;;;;;4792680;29;20030;-90
2021/11/02 13:36:46;;;;;;;26.73;18.42;;;384.00;2329.60;;;;;;4792501;29;20491;-87
2021/11/02 13:39:13;;;;;;;25.02;16.27;;;384.00;2329.60;;;;;;4792257;29;20095;-81
2021/11/02 13:41:48;;;;;;;31.08;18.58;;;359.20;2329.60;;;;;;4791830;29;20106;-85
2021/11/02 13:44:15;;;;;;;19.70;15.75;;;359.20;2329.60;;;;;;4792128;29;20049;-87
2021/11/02 13:46:45;;;;;;;21.90;14.85;;;359.10;2329.60;;;;;;4792022;29;20046;-87
2021/11/02 13:49:13;;;;;;;20.83;15.95;;;359.10;2329.60;;;;;;4791940;29;20051;-85
2021/11/02 13:51:39;;;;;;;33.17;23.40;;;359.00;2329.60;;;;;;4791707;29;20485;-86
2021/11/02 13:54:07;;;;;;;36.00;27.05;;;358.90;2329.60;;;;;;4792323;29;20091;-87
2021/11/02 13:56:35;;;;;;;35.13;27.30;;;358.90;2329.60;;;;;;4791966;29;20119;-88
2021/11/02 13:59:02;;;;;;;33.03;26.10;;;359.30;2304.00;;;;;;4791711;29;20396;-86
2021/11/02 14:01:34;;;;;;;38.53;28.48;;;384.10;2252.80;;;;;;4807354;29;20027;-88
2021/11/02 14:04:24;;;;;;;33.47;24.83;;;384.80;2150.40;;;;;;4790468;29;20043;-87
2021/11/02 14:06:53;;;;;;;34.53;24.88;;;384.40;2150.40;;;;;;4807671;29;20049;-89
2021/11/02 14:09:28;;;;;;;44.03;36.00;;;359.10;2227.20;;;;;;4807107;29;20027;-92
2021/11/02 14:11:55;;;;;;;50.30;40.67;;;358.70;2304.00;;;;;;4792120;29;20031;-88
2021/11/02 14:14:33;;;;;;;49.05;34.15;;;358.80;2329.60;;;;;;4791204;29;20041;-90
2021/11/02 14:17:18;;;;;;;55.33;39.45;;;333.60;2329.60;;;;;;4789917;29;20066;-86
2021/11/02 14:19:51;;;;;;;42.50;33.28;;;333.60;2329.60;;;;;;4791005;29;20031;-91
2021/11/02 14:22:52;;;;;;;38.33;27.00;;;333.40;2329.60;;;;;;4792107;29;20089;-92
2021/11/02 14:25:20;;;;;;;30.63;22.23;;;333.10;2329.60;;;;;;4720378;30;20033;-89
2021/11/02 14:27:49;;;;;;;31.20;25.63;;;333.00;2329.60;;;;;;4733927;30;20052;-90
2021/11/02 14:30:33;;;;;;;33.53;25.77;;;333.10;2329.60;;;;;;4720135;30;20431;-91
2021/11/02 14:33:02;;;;;;;;;;;333.10;2329.60;;;;;;4734883;30;20620;-90
2021/11/02 14:35:56;;;;;;;26.65;21.00;;;333.00;2329.60;;;;;;4735352;30;19919;-92
2021/11/02 14:38:24;;;;;;;31.95;23.40;;;333.00;2329.60;;;;;;4733011;30;20037;-92
2021/11/02 14:40:56;;;;;;;29.42;21.55;;;333.00;2329.60;;;;;;4719934;30;20136;-91
2021/11/02 14:43:28;;;;;;;26.77;22.52;;;332.80;2329.60;;;;;;4734727;30;20025;-93
2021/11/02 14:45:55;;;;;;;36.38;29.33;;;332.80;2329.60;;;;;;4734747;30;20487;-92
2021/11/02 14:48:32;;;;;;;33.05;23.50;;;332.90;2329.60;;;;;;4735289;30;20058;-92
2021/11/02 14:51:00;;;;;;;27.00;21.42;;;332.80;2329.60;;;;;;4723603;30;20035;-92
2021/11/02 14:53:30;;;;;;;28.35;21.10;;;332.80;2329.60;;;;;;4720552;30;20064;-92
2021/11/02 14:55:56;;;;;;;27.92;21.98;;;308.00;2304.00;;;;;;4735007;30;20618;-91
2021/11/02 14:58:40;;;;;;;39.53;23.73;;;307.90;2304.00;;;;;;4734838;30;20064;-92
2021/11/02 15:01:07;;;;;;;37.38;26.60;;;308.00;2304.00;;;;;;4770849;29;20539;-92
2021/11/02 15:03:34;;;;;;;41.05;29.45;;;307.90;2304.00;;;;;;4792913;29;20031;-91
2021/11/02 15:06:12;;;;;;;37.25;29.52;;;307.90;2304.00;;;;;;4793162;29;20049;-93
2021/11/02 15:08:41;;;;;;;44.60;31.63;;;307.80;2304.00;;;;;;4792955;29;20058;-93
2021/11/02 15:11:14;;;;;;;48.47;35.28;;;307.70;2304.00;;;;;;4809026;29;20037;-91
2021/11/02 15:13:47;;;;;;;37.88;26.95;;;307.70;2304.00;;;;;;4791860;29;20429;-90
2021/11/02 15:16:57;;;;;;;34.25;26.50;;;307.70;2304.00;;;;;;4810247;29;20035;-92
2021/11/02 15:19:43;;;;;;;39.88;27.80;;;307.70;2304.00;;;;;;4785973;29;20039;-92
2021/11/02 15:22:10;;;;;;;46.78;34.85;;;307.50;2304.00;;;;;;4795395;29;20106;-93
2021/11/02 15:24:39;;;;;;;41.78;31.23;;;307.50;2304.00;;;;;;4793558;29;20035;-90
2021/11/02 15:27:13;;;;;;;42.88;29.45;;;307.50;2304.00;;;;;;4795239;29;20050;-91
2021/11/02 15:29:45;;;;;;;44.35;31.70;;;307.50;2304.00;;;;;;4792884;29;20063;-92
2021/11/02 15:32:15;;;;;;;43.67;32.30;;;307.40;2304.00;;;;;;4793593;29;20035;-91
2021/11/02 15:41:26;;;;;;;39.97;27.92;;;307.20;2304.00;;;;;;4808573;29;20489;-90
2021/11/02 15:57:10;;;;;;;41.40;29.10;;;307.20;2304.00;;;;;;4809541;29;20092;-92
2021/11/02 15:59:36;;;;;;;49.65;36.88;;;307.80;2304.00;;;;;;4805986;29;20130;-92
2021/11/02 16:02:03;;;;;;;39.80;30.63;;;307.30;2304.00;;;;;;4790732;29;20568;-87
2021/11/02 16:04:33;;;;;;;34.10;25.17;;;307.40;2304.00;;;;;;4791953;29;20027;-92
2021/11/02 16:07:01;;;;;;;41.45;29.17;;;307.30;2304.00;;;;;;4791721;29;20092;-92
2021/11/02 16:09:55;;;;;;;41.17;26.63;;;307.30;2304.00;;;;;;4792111;29;20058;-94
2021/11/02 16:12:27;;;;;;;44.40;30.13;;;307.30;2304.00;;;;;;4791473;29;20464;-92
2021/11/02 16:25:37;;;;;;;29.17;20.85;;;307.20;2304.00;;;;;;4812628;29;20086;-92
2021/11/02 16:28:46;;;;;;;37.05;22.83;;;282.40;2278.40;;;;;;4778294;30;20078;-88
2021/11/02 16:58:45;;;;;;;19.95;13.18;;;282.10;2278.40;;;;;;4816837;29;20059;-90
2021/11/02 17:42:17;;;;;;;31.40;21.52;;;281.80;2278.40;;;;;;4874901;24;20059;-90
2021/11/02 19:15:28;;;;;;;24.40;16.20;;;231.10;2252.80;;;;;;5461158;24;20046;-85
2021/11/02 19:22:05;;;;;;;25.65;18.55;;;231.00;2252.80;;;;;;4819073;29;20054;-84
2021/11/02 19:24:31;;;;;;;24.77;18.13;;;231.00;2252.80;;;;;;4805959;29;20023;-81
2021/11/02 19:26:57;;;;;;;30.33;20.00;;;231.00;2252.80;;;;;;4806627;29;20059;-83
2021/11/02 19:29:23;;;;;;;29.90;19.58;;;231.00;2252.80;;;;;;4785892;29;20108;-82
2021/11/02 19:31:49;;;;;;;30.42;20.08;;;231.00;2252.80;;;;;;4794254;29;20026;-81
2021/11/02 19:38:24;;;;;;;31.38;20.17;;;230.90;2252.80;;;;;;4776100;30;20031;-84
2021/11/02 19:41:51;;;;;;;32.97;21.60;;;230.90;2252.80;;;;;;4774352;30;20032;-79
2021/11/02 19:44:52;;;;;;;29.48;20.13;;;230.90;2252.80;;;;;;4728148;30;20013;-80
